sensor_id;sensor_type;location;lat;lon;timestamp;P1;durP1;ratioP1;P2;durP2;ratioP2
45007;SDS011;30743;52.008;5.644;2024-01-30T00:01:12;7.38;;;6.57;;
45007;SDS011;30743;52.008;5.644;2024-01-30T00:03:38;7.43;;;6.00;;
45007;SDS011;30743;52.008;5.644;2024-01-30T00:06:03;9.98;;;5.97;;
45007;SDS011;30743;52.008;5.644;2024-01-30T00:08:29;8.73;;;6.80;;
45007;SDS011;30743;52.008;5.644;2024-01-30T00:10:55;7.55;;;6.00;;
45007;SDS011;30743;52.008;5.644;2024-01-30T00:13:20;7.60;;;5.80;;
45007;SDS011;30743;52.008;5.644;2024-01-30T00:15:46;9.30;;;5.90;;
45007;SDS011;30743;52.008;5.644;2024-01-30T00:18:11;7.38;;;5.95;;
45007;SDS011;30743;52.008;5.644;2024-01-30T00:20:37;7.13;;;5.78;;
45007;SDS011;30743;52.008;5.644;2024-01-30T00:23:03;7.53;;;5.63;;
45007;SDS011;30743;52.008;5.644;2024-01-30T00:25:29;10.07;;;6.25;;
45007;SDS011;30743;52.008;5.644;2024-01-30T00:27:55;7.18;;;5.75;;
45007;SDS011;30743;52.008;5.644;2024-01-30T00:30:21;7.22;;;5.55;;
45007;SDS011;30743;52.008;5.644;2024-01-30T00:32:47;7.95;;;5.85;;
45007;SDS011;30743;52.008;5.644;2024-01-30T00:35:12;8.15;;;5.60;;
45007;SDS011;30743;52.008;5.644;2024-01-30T00:37:38;7.65;;;5.70;;
45007;SDS011;30743;52.008;5.644;2024-01-30T00:40:04;7.47;;;5.70;;
45007;SDS011;30743;52.008;5.644;2024-01-30T00:42:31;8.52;;;5.97;;
45007;SDS011;30743;52.008;5.644;2024-01-30T00:44:57;8.25;;;5.80;;
45007;SDS011;30743;52.008;5.644;2024-01-30T00:47:23;8.63;;;5.28;;
45007;SDS011;30743;52.008;5.644;2024-01-30T00:49:48;8.40;;;5.43;;
45007;SDS011;30743;52.008;5.644;2024-01-30T00:52:14;7.97;;;5.65;;
45007;SDS011;30743;52.008;5.644;2024-01-30T00:54:40;8.45;;;5.35;;
45007;SDS011;30743;52.008;5.644;2024-01-30T00:57:06;6.32;;;4.93;;
45007;SDS011;30743;52.008;5.644;2024-01-30T00:59:32;8.90;;;5.53;;
45007;SDS011;30743;52.008;5.644;2024-01-30T01:01:57;7.18;;;5.25;;
45007;SDS011;30743;52.008;5.644;2024-01-30T01:04:23;6.82;;;5.25;;
45007;SDS011;30743;52.008;5.644;2024-01-30T01:06:49;7.38;;;5.32;;
45007;SDS011;30743;52.008;5.644;2024-01-30T01:09:14;6.20;;;5.15;;
45007;SDS011;30743;52.008;5.644;2024-01-30T01:11:40;10.23;;;5.38;;
45007;SDS011;30743;52.008;5.644;2024-01-30T01:14:06;9.75;;;5.57;;
45007;SDS011;30743;52.008;5.644;2024-01-30T01:16:31;8.07;;;5.35;;
45007;SDS011;30743;52.008;5.644;2024-01-30T01:18:58;8.27;;;5.60;;
45007;SDS011;30743;52.008;5.644;2024-01-30T01:21:25;10.43;;;4.90;;
45007;SDS011;30743;52.008;5.644;2024-01-30T01:23:50;7.70;;;5.72;;
45007;SDS011;30743;52.008;5.644;2024-01-30T01:26:16;7.05;;;5.70;;
45007;SDS011;30743;52.008;5.644;2024-01-30T01:28:42;7.22;;;5.35;;
45007;SDS011;30743;52.008;5.644;2024-01-30T01:31:07;6.57;;;5.15;;
45007;SDS011;30743;52.008;5.644;2024-01-30T01:33:33;8.02;;;5.38;;
45007;SDS011;30743;52.008;5.644;2024-01-30T01:35:59;6.63;;;4.97;;
45007;SDS011;30743;52.008;5.644;2024-01-30T01:38:27;7.13;;;5.50;;
45007;SDS011;30743;52.008;5.644;2024-01-30T01:40:53;7.63;;;5.45;;
45007;SDS011;30743;52.008;5.644;2024-01-30T01:43:19;7.28;;;5.15;;
45007;SDS011;30743;52.008;5.644;2024-01-30T01:45:44;8.93;;;5.38;;
45007;SDS011;30743;52.008;5.644;2024-01-30T01:48:10;7.18;;;5.13;;
45007;SDS011;30743;52.008;5.644;2024-01-30T01:50:37;9.82;;;5.10;;
45007;SDS011;30743;52.008;5.644;2024-01-30T01:53:03;6.38;;;5.03;;
45007;SDS011;30743;52.008;5.644;2024-01-30T01:55:32;7.30;;;5.68;;
45007;SDS011;30743;52.008;5.644;2024-01-30T01:57:59;7.22;;;5.50;;
45007;SDS011;30743;52.008;5.644;2024-01-30T02:00:24;7.35;;;5.07;;
45007;SDS011;30743;52.008;5.644;2024-01-30T02:02:50;6.38;;;5.05;;
45007;SDS011;30743;52.008;5.644;2024-01-30T02:05:19;8.27;;;5.32;;
45007;SDS011;30743;52.008;5.644;2024-01-30T02:07:45;7.38;;;5.55;;
45007;SDS011;30743;52.008;5.644;2024-01-30T02:10:10;8.23;;;5.32;;
45007;SDS011;30743;52.008;5.644;2024-01-30T02:12:36;8.07;;;6.20;;
45007;SDS011;30743;52.008;5.644;2024-01-30T02:15:02;6.45;;;5.15;;
45007;SDS011;30743;52.008;5.644;2024-01-30T02:17:28;7.43;;;5.30;;
45007;SDS011;30743;52.008;5.644;2024-01-30T02:19:53;7.85;;;5.75;;
45007;SDS011;30743;52.008;5.644;2024-01-30T02:22:19;7.13;;;5.22;;
45007;SDS011;30743;52.008;5.644;2024-01-30T02:24:46;7.70;;;5.50;;
45007;SDS011;30743;52.008;5.644;2024-01-30T02:27:11;10.95;;;5.25;;
45007;SDS011;30743;52.008;5.644;2024-01-30T02:29:37;9.27;;;5.60;;
45007;SDS011;30743;52.008;5.644;2024-01-30T02:32:03;8.02;;;5.68;;
45007;SDS011;30743;52.008;5.644;2024-01-30T02:34:29;6.80;;;5.35;;
45007;SDS011;30743;52.008;5.644;2024-01-30T02:36:54;9.05;;;5.80;;
45007;SDS011;30743;52.008;5.644;2024-01-30T02:39:20;6.78;;;5.60;;
45007;SDS011;30743;52.008;5.644;2024-01-30T02:41:45;8.23;;;5.22;;
45007;SDS011;30743;52.008;5.644;2024-01-30T02:44:11;8.85;;;5.13;;
45007;SDS011;30743;52.008;5.644;2024-01-30T02:46:36;10.05;;;5.45;;
45007;SDS011;30743;52.008;5.644;2024-01-30T02:49:02;9.88;;;5.45;;
45007;SDS011;30743;52.008;5.644;2024-01-30T02:51:28;6.32;;;5.40;;
45007;SDS011;30743;52.008;5.644;2024-01-30T02:53:53;9.43;;;5.40;;
45007;SDS011;30743;52.008;5.644;2024-01-30T02:56:19;11.43;;;6.18;;
45007;SDS011;30743;52.008;5.644;2024-01-30T02:58:44;8.43;;;5.78;;
45007;SDS011;30743;52.008;5.644;2024-01-30T03:01:10;8.32;;;5.82;;
45007;SDS011;30743;52.008;5.644;2024-01-30T03:03:35;7.32;;;5.25;;
45007;SDS011;30743;52.008;5.644;2024-01-30T03:06:01;10.15;;;5.60;;
45007;SDS011;30743;52.008;5.644;2024-01-30T03:08:27;7.43;;;5.43;;
45007;SDS011;30743;52.008;5.644;2024-01-30T03:10:52;6.75;;;5.38;;
45007;SDS011;30743;52.008;5.644;2024-01-30T03:13:18;9.02;;;5.43;;
45007;SDS011;30743;52.008;5.644;2024-01-30T03:15:44;9.32;;;5.30;;
45007;SDS011;30743;52.008;5.644;2024-01-30T03:18:10;7.93;;;5.35;;
45007;SDS011;30743;52.008;5.644;2024-01-30T03:20:35;7.57;;;5.40;;
45007;SDS011;30743;52.008;5.644;2024-01-30T03:23:01;8.68;;;5.00;;
45007;SDS011;30743;52.008;5.644;2024-01-30T03:25:26;7.88;;;5.00;;
45007;SDS011;30743;52.008;5.644;2024-01-30T03:27:52;7.88;;;5.10;;
45007;SDS011;30743;52.008;5.644;2024-01-30T03:30:17;7.65;;;5.00;;
45007;SDS011;30743;52.008;5.644;2024-01-30T03:32:43;8.18;;;4.80;;
45007;SDS011;30743;52.008;5.644;2024-01-30T03:35:09;7.25;;;4.68;;
45007;SDS011;30743;52.008;5.644;2024-01-30T03:37:35;6.78;;;5.22;;
45007;SDS011;30743;52.008;5.644;2024-01-30T03:40:01;8.15;;;4.95;;
45007;SDS011;30743;52.008;5.644;2024-01-30T03:42:28;7.40;;;5.53;;
45007;SDS011;30743;52.008;5.644;2024-01-30T03:44:53;6.75;;;5.32;;
45007;SDS011;30743;52.008;5.644;2024-01-30T03:47:20;6.35;;;5.03;;
45007;SDS011;30743;52.008;5.644;2024-01-30T03:49:46;9.07;;;5.47;;
45007;SDS011;30743;52.008;5.644;2024-01-30T03:52:11;6.80;;;5.25;;
45007;SDS011;30743;52.008;5.644;2024-01-30T03:54:37;8.88;;;5.80;;
45007;SDS011;30743;52.008;5.644;2024-01-30T03:57:02;8.13;;;5.53;;
45007;SDS011;30743;52.008;5.644;2024-01-30T03:59:28;9.80;;;5.60;;
45007;SDS011;30743;52.008;5.644;2024-01-30T04:01:54;7.00;;;5.35;;
45007;SDS011;30743;52.008;5.644;2024-01-30T04:04:20;7.75;;;5.40;;
45007;SDS011;30743;52.008;5.644;2024-01-30T04:06:45;6.50;;;5.35;;
45007;SDS011;30743;52.008;5.644;2024-01-30T04:09:14;8.90;;;5.50;;
45007;SDS011;30743;52.008;5.644;2024-01-30T04:11:40;8.07;;;5.65;;
45007;SDS011;30743;52.008;5.644;2024-01-30T04:14:07;8.35;;;5.93;;
45007;SDS011;30743;52.008;5.644;2024-01-30T04:16:33;7.78;;;5.97;;
45007;SDS011;30743;52.008;5.644;2024-01-30T04:18:59;9.60;;;5.28;;
45007;SDS011;30743;52.008;5.644;2024-01-30T04:21:24;6.05;;;4.72;;
45007;SDS011;30743;52.008;5.644;2024-01-30T04:23:50;6.68;;;5.43;;
45007;SDS011;30743;52.008;5.644;2024-01-30T04:26:16;7.47;;;5.35;;
45007;SDS011;30743;52.008;5.644;2024-01-30T04:28:43;6.63;;;5.40;;
45007;SDS011;30743;52.008;5.644;2024-01-30T04:31:09;6.60;;;5.55;;
45007;SDS011;30743;52.008;5.644;2024-01-30T04:33:35;8.23;;;5.63;;
45007;SDS011;30743;52.008;5.644;2024-01-30T04:36:01;7.13;;;5.28;;
45007;SDS011;30743;52.008;5.644;2024-01-30T04:38:26;7.45;;;5.25;;
45007;SDS011;30743;52.008;5.644;2024-01-30T04:40:52;9.93;;;5.35;;
45007;SDS011;30743;52.008;5.644;2024-01-30T04:43:18;10.30;;;5.22;;
45007;SDS011;30743;52.008;5.644;2024-01-30T04:45:44;6.57;;;4.97;;
45007;SDS011;30743;52.008;5.644;2024-01-30T04:48:09;8.93;;;5.53;;
45007;SDS011;30743;52.008;5.644;2024-01-30T04:50:35;6.28;;;5.13;;
45007;SDS011;30743;52.008;5.644;2024-01-30T04:53:01;9.85;;;5.47;;
45007;SDS011;30743;52.008;5.644;2024-01-30T04:55:27;8.50;;;5.35;;
45007;SDS011;30743;52.008;5.644;2024-01-30T04:57:52;6.95;;;5.18;;
45007;SDS011;30743;52.008;5.644;2024-01-30T05:00:18;7.90;;;5.28;;
45007;SDS011;30743;52.008;5.644;2024-01-30T05:02:43;10.02;;;6.03;;
45007;SDS011;30743;52.008;5.644;2024-01-30T05:05:09;7.50;;;4.80;;
45007;SDS011;30743;52.008;5.644;2024-01-30T05:07:36;6.57;;;4.93;;
45007;SDS011;30743;52.008;5.644;2024-01-30T05:10:01;10.10;;;5.40;;
45007;SDS011;30743;52.008;5.644;2024-01-30T05:12:28;7.00;;;4.97;;
45007;SDS011;30743;52.008;5.644;2024-01-30T05:14:53;6.57;;;5.18;;
45007;SDS011;30743;52.008;5.644;2024-01-30T05:17:19;5.90;;;4.70;;
45007;SDS011;30743;52.008;5.644;2024-01-30T05:19:45;8.82;;;5.68;;
45007;SDS011;30743;52.008;5.644;2024-01-30T05:22:10;8.13;;;5.38;;
45007;SDS011;30743;52.008;5.644;2024-01-30T05:24:40;6.97;;;5.47;;
45007;SDS011;30743;52.008;5.644;2024-01-30T05:27:06;7.47;;;4.95;;
45007;SDS011;30743;52.008;5.644;2024-01-30T05:29:32;8.98;;;5.32;;
45007;SDS011;30743;52.008;5.644;2024-01-30T05:31:58;7.97;;;5.88;;
45007;SDS011;30743;52.008;5.644;2024-01-30T05:34:23;8.73;;;5.85;;
45007;SDS011;30743;52.008;5.644;2024-01-30T05:36:49;6.03;;;4.70;;
45007;SDS011;30743;52.008;5.644;2024-01-30T05:39:14;8.75;;;5.47;;
45007;SDS011;30743;52.008;5.644;2024-01-30T05:41:40;7.90;;;5.00;;
45007;SDS011;30743;52.008;5.644;2024-01-30T05:44:06;10.27;;;5.70;;
45007;SDS011;30743;52.008;5.644;2024-01-30T05:46:31;5.72;;;4.68;;
45007;SDS011;30743;52.008;5.644;2024-01-30T05:48:58;7.65;;;5.25;;
45007;SDS011;30743;52.008;5.644;2024-01-30T05:51:24;8.15;;;4.85;;
45007;SDS011;30743;52.008;5.644;2024-01-30T05:53:49;6.65;;;5.15;;
45007;SDS011;30743;52.008;5.644;2024-01-30T05:56:15;8.70;;;5.90;;
45007;SDS011;30743;52.008;5.644;2024-01-30T05:58:40;5.75;;;4.65;;
45007;SDS011;30743;52.008;5.644;2024-01-30T06:01:08;6.45;;;4.95;;
45007;SDS011;30743;52.008;5.644;2024-01-30T06:03:34;7.60;;;5.53;;
45007;SDS011;30743;52.008;5.644;2024-01-30T06:06:00;6.88;;;5.30;;
45007;SDS011;30743;52.008;5.644;2024-01-30T06:08:25;6.78;;;4.93;;
45007;SDS011;30743;52.008;5.644;2024-01-30T06:10:51;8.98;;;5.40;;
45007;SDS011;30743;52.008;5.644;2024-01-30T06:13:17;9.05;;;5.30;;
45007;SDS011;30743;52.008;5.644;2024-01-30T06:15:42;9.07;;;4.97;;
45007;SDS011;30743;52.008;5.644;2024-01-30T06:18:08;6.03;;;4.82;;
45007;SDS011;30743;52.008;5.644;2024-01-30T06:20:34;5.60;;;4.95;;
45007;SDS011;30743;52.008;5.644;2024-01-30T06:22:59;8.73;;;5.30;;
45007;SDS011;30743;52.008;5.644;2024-01-30T06:25:25;6.03;;;4.93;;
45007;SDS011;30743;52.008;5.644;2024-01-30T06:27:51;9.18;;;5.43;;
45007;SDS011;30743;52.008;5.644;2024-01-30T06:30:16;7.05;;;4.85;;
45007;SDS011;30743;52.008;5.644;2024-01-30T06:32:42;7.25;;;4.55;;
45007;SDS011;30743;52.008;5.644;2024-01-30T06:35:08;7.55;;;4.82;;
45007;SDS011;30743;52.008;5.644;2024-01-30T06:37:35;6.57;;;4.70;;
45007;SDS011;30743;52.008;5.644;2024-01-30T06:40:01;5.10;;;4.30;;
45007;SDS011;30743;52.008;5.644;2024-01-30T06:42:26;7.18;;;5.03;;
45007;SDS011;30743;52.008;5.644;2024-01-30T06:44:52;6.97;;;5.05;;
45007;SDS011;30743;52.008;5.644;2024-01-30T06:47:17;6.97;;;4.70;;
45007;SDS011;30743;52.008;5.644;2024-01-30T06:49:43;8.57;;;4.78;;
45007;SDS011;30743;52.008;5.644;2024-01-30T06:52:10;5.70;;;4.65;;
45007;SDS011;30743;52.008;5.644;2024-01-30T06:54:36;7.18;;;4.80;;
45007;SDS011;30743;52.008;5.644;2024-01-30T06:57:01;7.95;;;4.65;;
45007;SDS011;30743;52.008;5.644;2024-01-30T06:59:27;5.88;;;4.60;;
45007;SDS011;30743;52.008;5.644;2024-01-30T07:01:53;6.53;;;4.38;;
45007;SDS011;30743;52.008;5.644;2024-01-30T07:04:19;8.23;;;5.22;;
45007;SDS011;30743;52.008;5.644;2024-01-30T07:06:44;6.55;;;4.65;;
45007;SDS011;30743;52.008;5.644;2024-01-30T07:09:10;5.97;;;4.55;;
45007;SDS011;30743;52.008;5.644;2024-01-30T07:11:35;5.10;;;3.70;;
45007;SDS011;30743;52.008;5.644;2024-01-30T07:14:01;6.35;;;4.72;;
45007;SDS011;30743;52.008;5.644;2024-01-30T07:16:29;6.47;;;4.55;;
45007;SDS011;30743;52.008;5.644;2024-01-30T07:18:55;7.68;;;5.13;;
45007;SDS011;30743;52.008;5.644;2024-01-30T07:21:21;6.72;;;4.43;;
45007;SDS011;30743;52.008;5.644;2024-01-30T07:23:52;6.20;;;4.20;;
45007;SDS011;30743;52.008;5.644;2024-01-30T07:26:18;6.88;;;4.63;;
45007;SDS011;30743;52.008;5.644;2024-01-30T07:28:44;5.90;;;4.40;;
45007;SDS011;30743;52.008;5.644;2024-01-30T07:31:09;7.53;;;4.60;;
45007;SDS011;30743;52.008;5.644;2024-01-30T07:33:35;6.35;;;4.80;;
45007;SDS011;30743;52.008;5.644;2024-01-30T07:36:01;5.78;;;4.18;;
45007;SDS011;30743;52.008;5.644;2024-01-30T07:38:26;7.45;;;4.63;;
45007;SDS011;30743;52.008;5.644;2024-01-30T07:40:52;8.63;;;4.38;;
45007;SDS011;30743;52.008;5.644;2024-01-30T07:43:17;5.90;;;4.30;;
45007;SDS011;30743;52.008;5.644;2024-01-30T07:45:45;7.97;;;5.15;;
45007;SDS011;30743;52.008;5.644;2024-01-30T07:48:10;6.63;;;4.15;;
45007;SDS011;30743;52.008;5.644;2024-01-30T07:50:36;6.10;;;4.00;;
45007;SDS011;30743;52.008;5.644;2024-01-30T07:53:01;6.93;;;4.65;;
45007;SDS011;30743;52.008;5.644;2024-01-30T07:55:27;5.43;;;4.63;;
45007;SDS011;30743;52.008;5.644;2024-01-30T07:57:54;7.78;;;4.97;;
45007;SDS011;30743;52.008;5.644;2024-01-30T08:00:20;6.47;;;4.47;;
45007;SDS011;30743;52.008;5.644;2024-01-30T08:02:53;6.13;;;4.28;;
45007;SDS011;30743;52.008;5.644;2024-01-30T08:05:21;7.93;;;4.95;;
45007;SDS011;30743;52.008;5.644;2024-01-30T08:07:48;7.13;;;4.38;;
45007;SDS011;30743;52.008;5.644;2024-01-30T08:10:14;6.00;;;4.03;;
45007;SDS011;30743;52.008;5.644;2024-01-30T08:12:41;6.00;;;4.85;;
45007;SDS011;30743;52.008;5.644;2024-01-30T08:15:06;8.27;;;4.78;;
45007;SDS011;30743;52.008;5.644;2024-01-30T08:17:33;5.75;;;4.50;;
45007;SDS011;30743;52.008;5.644;2024-01-30T08:19:59;5.78;;;4.45;;
45007;SDS011;30743;52.008;5.644;2024-01-30T08:22:24;7.78;;;4.68;;
45007;SDS011;30743;52.008;5.644;2024-01-30T08:24:50;7.68;;;4.53;;
45007;SDS011;30743;52.008;5.644;2024-01-30T08:27:15;6.00;;;4.25;;
45007;SDS011;30743;52.008;5.644;2024-01-30T08:29:41;7.43;;;4.55;;
45007;SDS011;30743;52.008;5.644;2024-01-30T08:32:07;8.93;;;4.30;;
45007;SDS011;30743;52.008;5.644;2024-01-30T08:34:33;6.75;;;3.95;;
45007;SDS011;30743;52.008;5.644;2024-01-30T08:36:58;5.95;;;4.38;;
45007;SDS011;30743;52.008;5.644;2024-01-30T08:39:24;6.97;;;4.20;;
45007;SDS011;30743;52.008;5.644;2024-01-30T08:41:50;6.15;;;4.00;;
45007;SDS011;30743;52.008;5.644;2024-01-30T08:44:16;6.35;;;4.68;;
45007;SDS011;30743;52.008;5.644;2024-01-30T08:46:42;6.53;;;4.28;;
45007;SDS011;30743;52.008;5.644;2024-01-30T08:49:08;6.70;;;4.00;;
45007;SDS011;30743;52.008;5.644;2024-01-30T08:51:34;6.22;;;4.25;;
45007;SDS011;30743;52.008;5.644;2024-01-30T08:53:59;7.10;;;4.38;;
45007;SDS011;30743;52.008;5.644;2024-01-30T08:56:25;5.57;;;4.03;;
45007;SDS011;30743;52.008;5.644;2024-01-30T08:58:50;5.88;;;4.28;;
45007;SDS011;30743;52.008;5.644;2024-01-30T09:01:16;6.43;;;3.95;;
45007;SDS011;30743;52.008;5.644;2024-01-30T09:03:42;6.15;;;4.00;;
45007;SDS011;30743;52.008;5.644;2024-01-30T09:06:10;6.45;;;4.03;;
45007;SDS011;30743;52.008;5.644;2024-01-30T09:08:36;6.40;;;4.18;;
45007;SDS011;30743;52.008;5.644;2024-01-30T09:11:08;5.60;;;3.70;;
45007;SDS011;30743;52.008;5.644;2024-01-30T09:13:34;7.65;;;3.72;;
45007;SDS011;30743;52.008;5.644;2024-01-30T09:16:00;7.82;;;4.07;;
45007;SDS011;30743;52.008;5.644;2024-01-30T09:18:26;6.25;;;4.25;;
45007;SDS011;30743;52.008;5.644;2024-01-30T09:20:51;4.70;;;3.78;;
45007;SDS011;30743;52.008;5.644;2024-01-30T09:23:17;5.85;;;4.05;;
45007;SDS011;30743;52.008;5.644;2024-01-30T09:25:44;8.45;;;4.47;;
45007;SDS011;30743;52.008;5.644;2024-01-30T09:28:10;5.72;;;4.40;;
45007;SDS011;30743;52.008;5.644;2024-01-30T09:30:35;5.13;;;3.90;;
45007;SDS011;30743;52.008;5.644;2024-01-30T09:33:01;8.80;;;4.43;;
45007;SDS011;30743;52.008;5.644;2024-01-30T09:35:27;6.25;;;4.10;;
45007;SDS011;30743;52.008;5.644;2024-01-30T09:37:52;5.38;;;4.20;;
45007;SDS011;30743;52.008;5.644;2024-01-30T09:40:18;6.53;;;4.43;;
45007;SDS011;30743;52.008;5.644;2024-01-30T09:42:46;6.70;;;4.40;;
45007;SDS011;30743;52.008;5.644;2024-01-30T09:45:15;7.32;;;3.80;;
45007;SDS011;30743;52.008;5.644;2024-01-30T09:47:44;6.68;;;4.15;;
45007;SDS011;30743;52.008;5.644;2024-01-30T09:50:11;6.55;;;4.28;;
45007;SDS011;30743;52.008;5.644;2024-01-30T09:52:37;6.25;;;3.92;;
45007;SDS011;30743;52.008;5.644;2024-01-30T09:55:04;7.30;;;4.45;;
45007;SDS011;30743;52.008;5.644;2024-01-30T09:57:30;6.53;;;4.65;;
45007;SDS011;30743;52.008;5.644;2024-01-30T09:59:56;7.53;;;4.32;;
45007;SDS011;30743;52.008;5.644;2024-01-30T10:02:22;8.40;;;4.70;;
45007;SDS011;30743;52.008;5.644;2024-01-30T10:04:48;8.52;;;4.63;;
45007;SDS011;30743;52.008;5.644;2024-01-30T10:07:15;5.78;;;4.32;;
45007;SDS011;30743;52.008;5.644;2024-01-30T10:09:41;6.95;;;4.38;;
45007;SDS011;30743;52.008;5.644;2024-01-30T10:12:08;9.48;;;6.03;;
45007;SDS011;30743;52.008;5.644;2024-01-30T10:14:37;6.32;;;4.80;;
45007;SDS011;30743;52.008;5.644;2024-01-30T10:17:10;7.47;;;5.03;;
45007;SDS011;30743;52.008;5.644;2024-01-30T10:19:37;7.15;;;4.53;;
45007;SDS011;30743;52.008;5.644;2024-01-30T10:22:03;9.32;;;5.40;;
45007;SDS011;30743;52.008;5.644;2024-01-30T10:24:29;8.00;;;4.55;;
45007;SDS011;30743;52.008;5.644;2024-01-30T10:26:55;6.82;;;4.47;;
45007;SDS011;30743;52.008;5.644;2024-01-30T10:29:21;7.63;;;3.92;;
45007;SDS011;30743;52.008;5.644;2024-01-30T10:34:29;6.35;;;3.80;;
45007;SDS011;30743;52.008;5.644;2024-01-30T10:37:10;8.43;;;4.20;;
45007;SDS011;30743;52.008;5.644;2024-01-30T10:39:45;5.75;;;3.75;;
45007;SDS011;30743;52.008;5.644;2024-01-30T10:42:17;6.28;;;4.10;;
45007;SDS011;30743;52.008;5.644;2024-01-30T10:44:46;5.88;;;3.75;;
45007;SDS011;30743;52.008;5.644;2024-01-30T10:47:22;9.20;;;4.72;;
45007;SDS011;30743;52.008;5.644;2024-01-30T10:49:52;8.00;;;3.83;;
45007;SDS011;30743;52.008;5.644;2024-01-30T10:52:18;6.30;;;3.92;;
45007;SDS011;30743;52.008;5.644;2024-01-30T10:54:45;8.52;;;3.83;;
45007;SDS011;30743;52.008;5.644;2024-01-30T10:57:12;6.40;;;3.72;;
45007;SDS011;30743;52.008;5.644;2024-01-30T10:59:40;5.35;;;3.88;;
45007;SDS011;30743;52.008;5.644;2024-01-30T11:02:07;5.63;;;3.20;;
45007;SDS011;30743;52.008;5.644;2024-01-30T11:04:36;5.63;;;3.53;;
45007;SDS011;30743;52.008;5.644;2024-01-30T11:07:03;8.10;;;2.97;;
45007;SDS011;30743;52.008;5.644;2024-01-30T11:12:23;5.07;;;2.47;;
45007;SDS011;30743;52.008;5.644;2024-01-30T11:14:50;4.95;;;2.45;;
45007;SDS011;30743;52.008;5.644;2024-01-30T11:20:15;4.38;;;2.45;;
45007;SDS011;30743;52.008;5.644;2024-01-30T11:22:54;5.07;;;2.70;;
45007;SDS011;30743;52.008;5.644;2024-01-30T11:25:21;4.22;;;2.40;;
45007;SDS011;30743;52.008;5.644;2024-01-30T11:27:52;5.50;;;2.70;;
45007;SDS011;30743;52.008;5.644;2024-01-30T11:33:01;4.32;;;2.70;;
45007;SDS011;30743;52.008;5.644;2024-01-30T11:35:30;7.43;;;3.22;;
45007;SDS011;30743;52.008;5.644;2024-01-30T11:37:59;6.15;;;2.70;;
45007;SDS011;30743;52.008;5.644;2024-01-30T11:40:27;5.20;;;2.72;;
45007;SDS011;30743;52.008;5.644;2024-01-30T11:42:54;5.82;;;3.05;;
45007;SDS011;30743;52.008;5.644;2024-01-30T11:45:20;6.28;;;2.80;;
45007;SDS011;30743;52.008;5.644;2024-01-30T11:47:46;9.68;;;3.15;;
45007;SDS011;30743;52.008;5.644;2024-01-30T11:50:12;4.85;;;2.72;;
45007;SDS011;30743;52.008;5.644;2024-01-30T11:52:38;5.28;;;2.28;;
45007;SDS011;30743;52.008;5.644;2024-01-30T11:55:04;2.85;;;1.67;;
45007;SDS011;30743;52.008;5.644;2024-01-30T11:57:31;4.13;;;2.05;;
45007;SDS011;30743;52.008;5.644;2024-01-30T11:59:56;4.65;;;1.60;;
45007;SDS011;30743;52.008;5.644;2024-01-30T12:02:22;5.47;;;1.75;;
45007;SDS011;30743;52.008;5.644;2024-01-30T12:04:48;4.53;;;1.40;;
45007;SDS011;30743;52.008;5.644;2024-01-30T12:07:13;6.05;;;1.83;;
45007;SDS011;30743;52.008;5.644;2024-01-30T12:09:42;3.63;;;1.30;;
45007;SDS011;30743;52.008;5.644;2024-01-30T12:12:07;3.90;;;1.73;;
45007;SDS011;30743;52.008;5.644;2024-01-30T12:14:37;2.88;;;1.52;;
45007;SDS011;30743;52.008;5.644;2024-01-30T12:17:04;5.45;;;2.00;;
45007;SDS011;30743;52.008;5.644;2024-01-30T12:19:29;2.72;;;1.35;;
45007;SDS011;30743;52.008;5.644;2024-01-30T12:21:58;2.83;;;1.58;;
45007;SDS011;30743;52.008;5.644;2024-01-30T12:24:27;3.58;;;1.55;;
45007;SDS011;30743;52.008;5.644;2024-01-30T12:26:58;5.00;;;1.50;;
45007;SDS011;30743;52.008;5.644;2024-01-30T12:29:25;3.70;;;1.48;;
45007;SDS011;30743;52.008;5.644;2024-01-30T12:31:53;3.83;;;1.38;;
45007;SDS011;30743;52.008;5.644;2024-01-30T12:34:19;2.92;;;0.80;;
45007;SDS011;30743;52.008;5.644;2024-01-30T12:36:46;3.28;;;0.80;;
45007;SDS011;30743;52.008;5.644;2024-01-30T12:39:14;1.60;;;0.70;;
45007;SDS011;30743;52.008;5.644;2024-01-30T12:41:40;2.05;;;0.90;;
45007;SDS011;30743;52.008;5.644;2024-01-30T12:44:05;2.38;;;0.65;;
45007;SDS011;30743;52.008;5.644;2024-01-30T12:46:32;2.78;;;0.60;;
45007;SDS011;30743;52.008;5.644;2024-01-30T12:48:59;2.28;;;0.50;;
45007;SDS011;30743;52.008;5.644;2024-01-30T12:51:25;4.20;;;0.68;;
45007;SDS011;30743;52.008;5.644;2024-01-30T12:53:50;2.17;;;0.50;;
45007;SDS011;30743;52.008;5.644;2024-01-30T12:56:16;2.08;;;0.50;;
45007;SDS011;30743;52.008;5.644;2024-01-30T12:58:41;2.03;;;0.70;;
45007;SDS011;30743;52.008;5.644;2024-01-30T13:01:08;1.20;;;0.60;;
45007;SDS011;30743;52.008;5.644;2024-01-30T13:03:34;2.33;;;0.63;;
45007;SDS011;30743;52.008;5.644;2024-01-30T13:05:59;1.65;;;0.70;;
45007;SDS011;30743;52.008;5.644;2024-01-30T13:08:25;1.83;;;1.00;;
45007;SDS011;30743;52.008;5.644;2024-01-30T13:10:51;2.63;;;1.10;;
45007;SDS011;30743;52.008;5.644;2024-01-30T13:13:16;3.47;;;1.40;;
45007;SDS011;30743;52.008;5.644;2024-01-30T13:15:42;5.28;;;1.52;;
45007;SDS011;30743;52.008;5.644;2024-01-30T13:18:08;5.20;;;1.50;;
45007;SDS011;30743;52.008;5.644;2024-01-30T13:20:33;2.35;;;1.45;;
45007;SDS011;30743;52.008;5.644;2024-01-30T13:22:59;3.40;;;1.67;;
45007;SDS011;30743;52.008;5.644;2024-01-30T13:25:24;3.97;;;1.90;;
45007;SDS011;30743;52.008;5.644;2024-01-30T13:27:50;4.10;;;1.60;;
45007;SDS011;30743;52.008;5.644;2024-01-30T13:30:15;5.85;;;2.40;;
45007;SDS011;30743;52.008;5.644;2024-01-30T13:32:41;6.28;;;1.60;;
45007;SDS011;30743;52.008;5.644;2024-01-30T13:35:09;7.78;;;2.53;;
45007;SDS011;30743;52.008;5.644;2024-01-30T13:37:34;8.40;;;2.28;;
45007;SDS011;30743;52.008;5.644;2024-01-30T13:40:01;4.07;;;2.40;;
45007;SDS011;30743;52.008;5.644;2024-01-30T13:42:34;6.28;;;2.70;;
45007;SDS011;30743;52.008;5.644;2024-01-30T13:44:59;5.90;;;2.85;;
45007;SDS011;30743;52.008;5.644;2024-01-30T13:47:25;6.22;;;2.55;;
45007;SDS011;30743;52.008;5.644;2024-01-30T13:49:50;4.68;;;2.22;;
45007;SDS011;30743;52.008;5.644;2024-01-30T13:52:18;7.47;;;2.22;;
45007;SDS011;30743;52.008;5.644;2024-01-30T13:54:43;6.50;;;2.85;;
45007;SDS011;30743;52.008;5.644;2024-01-30T13:57:09;6.22;;;2.67;;
45007;SDS011;30743;52.008;5.644;2024-01-30T13:59:35;4.30;;;1.95;;
45007;SDS011;30743;52.008;5.644;2024-01-30T14:02:00;8.52;;;2.15;;
45007;SDS011;30743;52.008;5.644;2024-01-30T14:04:26;5.15;;;1.88;;
45007;SDS011;30743;52.008;5.644;2024-01-30T14:06:51;4.47;;;1.80;;
45007;SDS011;30743;52.008;5.644;2024-01-30T14:09:17;6.47;;;1.38;;
45007;SDS011;30743;52.008;5.644;2024-01-30T14:11:43;3.85;;;1.73;;
45007;SDS011;30743;52.008;5.644;2024-01-30T14:14:09;3.00;;;1.48;;
45007;SDS011;30743;52.008;5.644;2024-01-30T14:16:34;3.85;;;1.27;;
45007;SDS011;30743;52.008;5.644;2024-01-30T14:19:00;2.90;;;1.50;;
45007;SDS011;30743;52.008;5.644;2024-01-30T14:21:26;3.22;;;1.50;;
45007;SDS011;30743;52.008;5.644;2024-01-30T14:23:51;1.60;;;1.20;;
45007;SDS011;30743;52.008;5.644;2024-01-30T14:26:17;2.45;;;1.33;;
45007;SDS011;30743;52.008;5.644;2024-01-30T14:28:43;4.30;;;1.50;;
45007;SDS011;30743;52.008;5.644;2024-01-30T14:31:08;2.72;;;1.55;;
45007;SDS011;30743;52.008;5.644;2024-01-30T14:33:34;3.70;;;2.05;;
45007;SDS011;30743;52.008;5.644;2024-01-30T14:35:59;4.60;;;1.83;;
45007;SDS011;30743;52.008;5.644;2024-01-30T14:38:25;4.13;;;1.90;;
45007;SDS011;30743;52.008;5.644;2024-01-30T14:40:51;4.05;;;1.70;;
45007;SDS011;30743;52.008;5.644;2024-01-30T14:43:16;3.75;;;1.63;;
45007;SDS011;30743;52.008;5.644;2024-01-30T14:45:42;2.75;;;1.55;;
45007;SDS011;30743;52.008;5.644;2024-01-30T14:48:10;3.83;;;1.70;;
45007;SDS011;30743;52.008;5.644;2024-01-30T14:50:36;3.67;;;1.73;;
45007;SDS011;30743;52.008;5.644;2024-01-30T14:53:02;2.38;;;1.55;;